Chiclana de la Frontera, Spain
Current Conditions -  °F | °C
As of 7:00 AM on Tuesday 21 Oct 2014 (Local Time) from LEJR Reporting Station
Clear Clear  
Wind Chill: 59°   Ceiling: Unl
Heat Index: 59°   Visibility: 6mi
Dew Point: 57°   Wind: 1mph
Humidity: 94%   Direction: NA
Pressure: 30.12"   Gusts: NA
Location:  36.42°N, 6.15°W
Report Text: LEJR 210500Z VRB01KT CAVOK 15/14 Q1020
Loading
Personal Weather Stations






























Interactive Weather Map
Tropical Storm Tracking
New forecast layout! Learn more

10-Day Weather Forecast

Advertisements
Track Severe Weather on mobile